createdAt,value
2023-03-05T00:00:19.979Z,99895.28
2023-03-05T00:02:48.962Z,99898.84
2023-03-05T00:05:18.232Z,99917.44
2023-03-05T00:07:50.264Z,99931.88
2023-03-05T00:10:19.522Z,99930.00
2023-03-05T00:12:47.880Z,99933.50
2023-03-05T00:15:17.686Z,99945.66
2023-03-05T00:17:45.966Z,99941.34
2023-03-05T00:20:15.676Z,99944.44
2023-03-05T00:22:43.930Z,99958.06
2023-03-05T00:25:13.796Z,99967.34
2023-03-05T00:27:42.860Z,99958.25
2023-03-05T00:30:12.682Z,99968.53
2023-03-05T00:32:41.889Z,99972.91
2023-03-05T00:35:11.326Z,99981.13
2023-03-05T00:37:40.291Z,99995.63
2023-03-05T00:40:10.535Z,100012.09
2023-03-05T00:42:39.271Z,100014.00
2023-03-05T00:45:11.481Z,100027.03
2023-03-05T00:47:40.062Z,100033.22
2023-03-05T00:50:10.093Z,100034.44
2023-03-05T00:52:40.042Z,100034.25
2023-03-05T00:55:11.743Z,100028.06
2023-03-05T00:57:40.329Z,100035.50
2023-03-05T01:00:10.952Z,100052.41
2023-03-05T01:02:41.844Z,100053.66
2023-03-05T01:05:15.510Z,100058.38
2023-03-05T01:07:43.852Z,100075.13
2023-03-05T01:10:14.326Z,100081.91
2023-03-05T01:12:43.290Z,100090.56
2023-03-05T01:15:11.906Z,100099.84
2023-03-05T01:17:40.392Z,100090.34
2023-03-05T01:20:10.147Z,100085.81
2023-03-05T01:22:38.873Z,100076.31
2023-03-05T01:25:07.762Z,100085.16
2023-03-05T01:27:36.467Z,100093.81
2023-03-05T01:30:08.330Z,100099.97
2023-03-05T01:32:37.872Z,100105.66
2023-03-05T01:35:08.136Z,100110.59
2023-03-05T01:37:37.358Z,100112.50
2023-03-05T01:40:06.984Z,100123.81
2023-03-05T01:42:36.130Z,100122.25
2023-03-05T01:45:11.953Z,100123.75
2023-03-05T01:47:41.270Z,100131.22
2023-03-05T01:51:13.842Z,100142.75
2023-03-05T01:53:43.205Z,100160.09
2023-03-05T01:56:12.295Z,100163.78
2023-03-05T01:58:41.742Z,100168.00
2023-03-05T02:01:10.964Z,100176.97
2023-03-05T02:03:42.049Z,100180.66
2023-03-05T02:06:11.451Z,100175.00
2023-03-05T02:08:39.960Z,100185.88
2023-03-05T02:11:09.708Z,100178.41
2023-03-05T02:13:41.750Z,100186.91
2023-03-05T02:16:11.042Z,100185.44
2023-03-05T02:18:39.871Z,100188.66
2023-03-05T02:21:10.169Z,100184.66
2023-03-05T02:23:39.884Z,100185.25
2023-03-05T02:26:11.174Z,100194.31
2023-03-05T02:28:51.282Z,100192.31
2023-03-05T02:31:23.614Z,100204.22
2023-03-05T02:33:54.978Z,100212.09
2023-03-05T02:36:24.957Z,100208.31
2023-03-05T02:38:59.325Z,100219.19
2023-03-05T02:41:31.320Z,100215.75
2023-03-05T02:44:01.760Z,100212.16
2023-03-05T02:46:30.861Z,100212.53
2023-03-05T02:49:00.541Z,100208.19
2023-03-05T02:51:30.610Z,100199.13
2023-03-05T02:54:01.372Z,100206.41
2023-03-05T02:56:31.586Z,100205.88
2023-03-05T02:59:02.010Z,100211.06
2023-03-05T03:01:31.567Z,100196.88
2023-03-05T03:04:01.673Z,100203.81
2023-03-05T03:06:31.129Z,100214.31
2023-03-05T03:09:01.586Z,100214.22
2023-03-05T03:11:30.805Z,100223.03
2023-03-05T03:14:01.066Z,100215.34
2023-03-05T03:16:30.514Z,100217.31
2023-03-05T03:19:00.416Z,100208.25
2023-03-05T03:21:31.215Z,100209.06
2023-03-05T03:24:01.461Z,100210.00
2023-03-05T03:26:31.051Z,100207.88
2023-03-05T03:29:00.773Z,100217.34
2023-03-05T03:31:30.794Z,100204.50
2023-03-05T03:34:00.302Z,100217.34
2023-03-05T03:36:31.012Z,100217.56
2023-03-05T03:39:00.880Z,100224.03
2023-03-05T03:41:31.108Z,100226.63
2023-03-05T03:44:00.425Z,100231.13
2023-03-05T03:46:30.480Z,100229.22
2023-03-05T03:49:01.503Z,100236.84
2023-03-05T03:51:31.087Z,100227.88
2023-03-05T03:54:01.467Z,100231.19
2023-03-05T03:56:30.414Z,100226.25
2023-03-05T03:58:59.730Z,100227.50
2023-03-05T04:01:29.060Z,100227.84
2023-03-05T04:03:58.787Z,100230.66
2023-03-05T04:06:29.134Z,100234.22
2023-03-05T04:09:00.052Z,100237.31
2023-03-05T04:11:29.919Z,100245.38
2023-03-05T04:14:00.151Z,100249.59
2023-03-05T04:16:30.124Z,100260.13
2023-03-05T04:19:00.045Z,100245.13
2023-03-05T04:21:30.530Z,100250.84
2023-03-05T04:23:59.800Z,100254.34
2023-03-05T04:26:28.835Z,100266.06
2023-03-05T04:28:59.324Z,100268.81
2023-03-05T04:31:28.434Z,100259.81
2023-03-05T04:33:58.733Z,100263.72
2023-03-05T04:36:29.845Z,100271.91
2023-03-05T04:39:00.123Z,100283.78
2023-03-05T04:41:30.358Z,100283.16
2023-03-05T04:44:00.092Z,100283.63
2023-03-05T04:46:30.506Z,100290.97
2023-03-05T04:49:00.988Z,100291.00
2023-03-05T04:51:30.136Z,100301.16
2023-03-05T04:54:00.138Z,100305.47
2023-03-05T04:56:30.630Z,100309.97
2023-03-05T04:59:00.632Z,100321.44
2023-03-05T05:01:31.133Z,100319.56
2023-03-05T05:04:01.563Z,100323.88
2023-03-05T05:06:31.190Z,100316.22
2023-03-05T05:09:01.602Z,100314.69
2023-03-05T05:11:31.816Z,100318.16
2023-03-05T05:14:00.798Z,100316.00
2023-03-05T05:16:30.402Z,100323.13
2023-03-05T05:19:00.395Z,100322.16
2023-03-05T05:21:30.333Z,100319.59
2023-03-05T05:24:00.222Z,100325.88
2023-03-05T05:26:31.153Z,100330.72
2023-03-05T05:29:01.146Z,100335.59
2023-03-05T05:31:30.326Z,100328.91
2023-03-05T05:34:00.640Z,100323.59
2023-03-05T05:36:33.914Z,100328.91
2023-03-05T05:39:03.031Z,100336.56
2023-03-05T05:41:32.184Z,100343.16
2023-03-05T05:44:01.439Z,100351.50
2023-03-05T05:46:30.581Z,100347.41
2023-03-05T05:49:01.802Z,100350.59
2023-03-05T05:51:30.781Z,100354.22
2023-03-05T05:54:00.585Z,100350.69
2023-03-05T05:56:30.840Z,100350.78
2023-03-05T05:59:00.410Z,100352.97
2023-03-05T06:01:32.400Z,100350.44
2023-03-05T06:04:02.101Z,100352.25
2023-03-05T06:06:31.725Z,100348.38
2023-03-05T06:09:01.837Z,100351.88
2023-03-05T06:11:31.433Z,100350.63
2023-03-05T06:14:04.134Z,100362.25
2023-03-05T06:16:32.658Z,100365.06
2023-03-05T06:19:04.864Z,100371.91
2023-03-05T06:21:35.362Z,100382.47
2023-03-05T06:24:04.197Z,100374.94
2023-03-05T06:26:34.083Z,100362.75
2023-03-05T06:29:03.640Z,100364.22
2023-03-05T06:31:32.234Z,100366.00
2023-03-05T06:34:04.455Z,100366.69
2023-03-05T06:36:34.154Z,100360.38
2023-03-05T06:39:02.874Z,100371.78
2023-03-05T06:41:32.414Z,100383.63
2023-03-05T06:44:03.717Z,100380.47
2023-03-05T06:46:38.025Z,100371.81
2023-03-05T06:49:10.358Z,100377.50
2023-03-05T06:51:40.943Z,100387.97
2023-03-05T06:54:16.011Z,100386.69
2023-03-05T06:56:48.171Z,100398.91
2023-03-05T06:59:18.688Z,100394.50
2023-03-05T07:01:48.231Z,100399.13
2023-03-05T07:04:17.983Z,100394.94
2023-03-05T07:06:47.707Z,100404.88
2023-03-05T07:09:17.184Z,100397.03
2023-03-05T07:11:47.853Z,100399.16
2023-03-05T07:14:16.930Z,100391.94
2023-03-05T07:16:46.145Z,100397.94
2023-03-05T07:19:14.974Z,100400.91
2023-03-05T07:21:43.720Z,100403.03
2023-03-05T07:24:14.160Z,100394.81
2023-03-05T07:26:42.876Z,100394.66
2023-03-05T07:29:11.473Z,100391.47
2023-03-05T07:31:40.110Z,100394.88
2023-03-05T07:34:08.801Z,100395.00
2023-03-05T07:36:39.098Z,100391.38
2023-03-05T07:39:08.163Z,100392.13
2023-03-05T07:41:36.712Z,100391.09
2023-03-05T07:44:06.521Z,100396.44
2023-03-05T07:46:36.839Z,100407.50
2023-03-05T07:49:06.266Z,100406.81
2023-03-05T07:51:35.357Z,100415.22
2023-03-05T07:54:04.040Z,100412.47
2023-03-05T07:56:35.860Z,100414.56
2023-03-05T07:59:07.660Z,100412.19
2023-03-05T08:01:36.728Z,100412.94
2023-03-05T08:04:07.733Z,100407.09
2023-03-05T08:06:36.219Z,100412.66
2023-03-05T08:09:04.889Z,100412.81
2023-03-05T08:11:34.094Z,100406.41
2023-03-05T08:14:02.758Z,100408.19
2023-03-05T08:16:31.967Z,100415.63
2023-03-05T08:19:02.566Z,100416.84
2023-03-05T08:21:36.846Z,100427.19
2023-03-05T08:24:09.338Z,100419.91
2023-03-05T08:26:39.696Z,100424.81
2023-03-05T08:29:10.511Z,100427.66
2023-03-05T08:31:40.333Z,100428.38
2023-03-05T08:34:09.549Z,100436.53
2023-03-05T08:36:38.238Z,100425.69
2023-03-05T08:39:10.872Z,100422.91
2023-03-05T08:41:39.903Z,100425.53
2023-03-05T08:44:08.546Z,100420.81
2023-03-05T08:46:40.726Z,100431.84
2023-03-05T08:49:11.757Z,100430.72
2023-03-05T08:51:40.313Z,100439.50
2023-03-05T08:54:10.960Z,100441.03
2023-03-05T08:56:39.687Z,100442.16
2023-03-05T08:59:09.456Z,100441.88
2023-03-05T09:01:38.253Z,100445.66
2023-03-05T09:04:07.074Z,100444.84
2023-03-05T09:06:39.819Z,100455.16
2023-03-05T09:09:10.329Z,100448.75
2023-03-05T09:11:39.369Z,100449.03
2023-03-05T09:14:08.107Z,100449.59
2023-03-05T09:16:38.219Z,100443.72
2023-03-05T09:19:13.671Z,100447.06
2023-03-05T09:21:43.363Z,100446.94
2023-03-05T09:24:12.584Z,100442.88
2023-03-05T09:26:43.067Z,100442.59
2023-03-05T09:29:13.049Z,100441.47
2023-03-05T09:31:42.309Z,100456.81
2023-03-05T09:34:12.418Z,100463.25
2023-03-05T09:36:41.972Z,100470.78
2023-03-05T09:39:10.337Z,100471.47
2023-03-05T09:42:14.769Z,100488.94
2023-03-05T09:44:52.603Z,100492.84
2023-03-05T09:47:50.190Z,100498.28
2023-03-05T09:50:43.063Z,100501.78
2023-03-05T09:53:20.053Z,100500.53
2023-03-05T09:55:53.700Z,100491.75
2023-03-05T09:59:00.624Z,100490.25
2023-03-05T10:01:40.502Z,100489.25
2023-03-05T10:04:17.191Z,100495.22
2023-03-05T10:07:00.664Z,100492.44
2023-03-05T10:10:02.290Z,100494.78
2023-03-05T10:12:44.652Z,100494.66
2023-03-05T10:15:32.204Z,100494.78
2023-03-05T10:18:11.641Z,100500.34
2023-03-05T10:21:13.079Z,100496.50
2023-03-05T10:24:12.273Z,100510.03
2023-03-05T10:27:04.274Z,100515.44
2023-03-05T10:29:56.090Z,100514.56
2023-03-05T10:32:30.126Z,100517.41
2023-03-05T10:35:22.185Z,100514.84
2023-03-05T10:38:12.427Z,100515.25
2023-03-05T10:40:52.823Z,100525.63
2023-03-05T10:43:43.882Z,100526.38
2023-03-05T10:46:22.079Z,100528.75
2023-03-05T10:49:04.196Z,100522.25
2023-03-05T10:51:42.431Z,100531.97
2023-03-05T10:54:30.013Z,100545.03
2023-03-05T10:57:18.379Z,100540.16
2023-03-05T11:00:06.627Z,100546.13
2023-03-05T11:02:53.030Z,100539.22
2023-03-05T11:06:05.081Z,100542.44
2023-03-05T11:08:38.618Z,100541.59
2023-03-05T11:11:21.602Z,100550.06
2023-03-05T11:13:57.477Z,100555.13
2023-03-05T11:16:31.756Z,100556.03
2023-03-05T11:19:25.418Z,100564.28
2023-03-05T11:22:22.516Z,100562.59
2023-03-05T11:25:17.608Z,100566.78
2023-03-05T11:27:56.617Z,100568.47
2023-03-05T11:30:38.342Z,100567.44
2023-03-05T11:33:12.145Z,100578.91
2023-03-05T11:35:44.111Z,100577.13
2023-03-05T11:38:24.561Z,100573.44
2023-03-05T11:40:59.170Z,100588.22
2023-03-05T11:43:28.150Z,100593.31
2023-03-05T11:46:04.231Z,100601.38
2023-03-05T11:48:40.786Z,100598.47
2023-03-05T11:51:23.738Z,100596.69
2023-03-05T11:54:00.587Z,100596.56
2023-03-05T11:56:38.596Z,100592.66
2023-03-05T11:59:21.500Z,100597.13
2023-03-05T12:01:55.920Z,100603.00
2023-03-05T12:04:25.861Z,100611.00
2023-03-05T12:07:04.872Z,100617.19
2023-03-05T12:09:43.407Z,100606.19
2023-03-05T12:12:39.803Z,100606.22
2023-03-05T12:15:39.773Z,100616.88
2023-03-05T12:18:13.141Z,100618.63
2023-03-05T12:21:06.609Z,100619.78
2023-03-05T12:23:54.437Z,100623.19
2023-03-05T12:27:00.671Z,100627.47
2023-03-05T12:29:52.970Z,100624.97
2023-03-05T12:32:31.954Z,100635.63
2023-03-05T12:35:01.301Z,100640.53
2023-03-05T12:37:30.692Z,100637.22
2023-03-05T12:40:12.781Z,100643.41
2023-03-05T12:42:54.243Z,100644.44
2023-03-05T12:45:23.260Z,100634.63
2023-03-05T12:47:58.753Z,100641.47
2023-03-05T12:50:30.670Z,100640.31
2023-03-05T12:53:19.664Z,100645.03
2023-03-05T12:56:18.059Z,100641.91
2023-03-05T12:58:59.177Z,100641.84
2023-03-05T13:01:47.809Z,100646.50
2023-03-05T13:04:26.186Z,100650.50
2023-03-05T13:07:15.037Z,100642.13
2023-03-05T13:09:56.684Z,100638.72
2023-03-05T13:12:29.898Z,100640.47
2023-03-05T13:14:59.125Z,100642.22
2023-03-05T13:17:45.075Z,100633.53
2023-03-05T13:20:29.832Z,100637.00
2023-03-05T13:23:12.912Z,100638.69
2023-03-05T13:25:43.352Z,100648.44
2023-03-05T13:28:18.248Z,100635.47
2023-03-05T13:30:54.814Z,100644.78
2023-03-05T13:33:30.308Z,100651.63
2023-03-05T13:36:00.488Z,100657.97
2023-03-05T13:38:37.074Z,100658.97
2023-03-05T13:41:12.127Z,100651.22
2023-03-05T13:44:02.650Z,100650.16
2023-03-05T13:46:33.110Z,100652.31
2023-03-05T13:49:24.015Z,100651.47
2023-03-05T13:51:55.991Z,100651.75
2023-03-05T13:54:26.404Z,100650.53
2023-03-05T13:56:59.562Z,100646.28
2023-03-05T13:59:32.385Z,100648.06
2023-03-05T14:02:07.371Z,100637.66
2023-03-05T14:04:41.101Z,100635.47
2023-03-05T14:07:41.347Z,100639.63
2023-03-05T14:10:28.766Z,100631.09
2023-03-05T14:13:00.554Z,100639.16
2023-03-05T14:15:33.762Z,100640.97
2023-03-05T14:18:13.316Z,100646.63
2023-03-05T14:21:03.787Z,100659.69
2023-03-05T14:23:38.092Z,100660.22
2023-03-05T14:26:25.051Z,100657.16
2023-03-05T14:29:03.721Z,100650.97
2023-03-05T14:31:47.172Z,100650.81
2023-03-05T14:34:31.332Z,100652.88
2023-03-05T14:37:06.956Z,100647.06
2023-03-05T14:40:08.255Z,100647.84
2023-03-05T14:42:42.777Z,100644.69
2023-03-05T14:45:23.788Z,100638.19
2023-03-05T14:47:56.036Z,100646.66
2023-03-05T14:50:28.628Z,100636.13
2023-03-05T14:53:01.210Z,100636.28
2023-03-05T14:55:33.175Z,100636.44
2023-03-05T14:58:08.132Z,100635.25
2023-03-05T15:00:37.552Z,100643.16
2023-03-05T15:03:06.730Z,100632.03
2023-03-05T15:05:38.337Z,100628.66
2023-03-05T15:08:14.560Z,100634.25
2023-03-05T15:10:43.431Z,100632.22
2023-03-05T15:13:14.518Z,100619.16
2023-03-05T15:15:45.341Z,100630.31
2023-03-05T15:18:18.284Z,100624.31
2023-03-05T15:20:49.850Z,100622.59
2023-03-05T15:23:18.459Z,100629.72
2023-03-05T15:25:46.981Z,100621.41
2023-03-05T15:28:16.423Z,100623.19
2023-03-05T15:30:47.647Z,100616.69
2023-03-05T15:33:18.761Z,100613.53
2023-03-05T15:35:48.068Z,100619.53
2023-03-05T15:38:18.559Z,100617.06
2023-03-05T15:40:47.848Z,100628.69
2023-03-05T15:43:18.280Z,100615.25
2023-03-05T15:45:48.638Z,100619.13
2023-03-05T15:48:20.281Z,100623.47
2023-03-05T15:50:48.627Z,100628.69
2023-03-05T15:53:18.945Z,100630.97
2023-03-05T15:55:47.823Z,100628.88
2023-03-05T15:58:18.297Z,100625.16
2023-03-05T16:00:47.967Z,100612.50
2023-03-05T16:03:16.801Z,100606.22
2023-03-05T16:05:45.977Z,100609.53
2023-03-05T16:08:15.422Z,100600.19
2023-03-05T16:10:44.384Z,100591.88
2023-03-05T16:13:20.612Z,100583.38
2023-03-05T16:15:54.333Z,100582.47
2023-03-05T16:18:24.354Z,100586.63
2023-03-05T16:20:53.063Z,100588.00
2023-03-05T16:23:23.812Z,100598.69
2023-03-05T16:25:52.820Z,100603.94
2023-03-05T16:28:22.580Z,100594.56
2023-03-05T16:31:01.794Z,100588.38
2023-03-05T16:33:30.878Z,100586.66
2023-03-05T16:36:21.677Z,100587.47
2023-03-05T16:38:53.048Z,100592.13
2023-03-05T16:41:24.458Z,100592.88
2023-03-05T16:43:56.861Z,100590.59
2023-03-05T16:46:30.395Z,100581.41
2023-03-05T16:49:01.540Z,100573.22
2023-03-05T16:51:30.720Z,100573.28
2023-03-05T16:54:02.278Z,100571.31
2023-03-05T16:56:31.404Z,100572.31
2023-03-05T16:59:01.415Z,100562.84
2023-03-05T17:01:31.511Z,100564.88
2023-03-05T17:04:03.115Z,100570.50
2023-03-05T17:06:34.038Z,100561.63
2023-03-05T17:09:04.349Z,100564.41
2023-03-05T17:11:35.809Z,100555.69
2023-03-05T17:14:04.806Z,100565.50
2023-03-05T17:16:34.962Z,100572.13
2023-03-05T17:19:04.112Z,100552.63
2023-03-05T17:21:32.538Z,100551.88
2023-03-05T17:24:02.235Z,100569.31
2023-03-05T17:26:33.353Z,100554.06
2023-03-05T17:29:02.840Z,100559.63
2023-03-05T17:31:32.321Z,100543.81
2023-03-05T17:34:01.089Z,100548.03
2023-03-05T17:36:32.695Z,100559.47
2023-03-05T17:39:02.132Z,100555.00
2023-03-05T17:41:31.787Z,100554.50
2023-03-05T17:44:02.014Z,100548.81
2023-03-05T17:46:32.044Z,100551.69
2023-03-05T17:49:01.239Z,100557.91
2023-03-05T17:51:30.904Z,100554.50
2023-03-05T17:54:00.771Z,100551.78
2023-03-05T17:56:31.880Z,100541.00
2023-03-05T17:59:03.046Z,100548.06
2023-03-05T18:01:35.851Z,100531.25
2023-03-05T18:04:04.420Z,100539.41
2023-03-05T18:06:33.495Z,100548.97
2023-03-05T18:09:02.395Z,100547.13
2023-03-05T18:11:32.204Z,100533.94
2023-03-05T18:14:02.540Z,100534.22
2023-03-05T18:16:31.810Z,100538.88
2023-03-05T18:19:00.825Z,100537.22
2023-03-05T18:21:31.349Z,100538.47
2023-03-05T18:24:01.220Z,100531.25
2023-03-05T18:26:30.586Z,100540.69
2023-03-05T18:29:02.096Z,100532.47
2023-03-05T18:31:30.862Z,100535.66
2023-03-05T18:34:01.244Z,100527.75
2023-03-05T18:36:30.813Z,100526.47
2023-03-05T18:39:00.662Z,100528.59
2023-03-05T18:41:32.056Z,100518.66
2023-03-05T18:44:03.433Z,100528.91
2023-03-05T18:46:32.539Z,100530.66
2023-03-05T18:49:01.615Z,100532.41
2023-03-05T18:51:32.509Z,100534.41
2023-03-05T18:54:04.122Z,100528.28
2023-03-05T18:56:33.062Z,100540.84
2023-03-05T18:59:02.597Z,100529.47
2023-03-05T19:01:32.014Z,100526.91
2023-03-05T19:04:00.934Z,100515.28
2023-03-05T19:06:30.632Z,100520.69
2023-03-05T19:09:06.215Z,100532.56
2023-03-05T19:11:35.041Z,100543.69
2023-03-05T19:14:04.484Z,100538.34
2023-03-05T19:16:40.935Z,100538.44
2023-03-05T19:19:23.676Z,100522.41
2023-03-05T19:22:00.451Z,100537.91
2023-03-05T19:24:31.805Z,100532.94
2023-03-05T19:27:03.980Z,100530.16
2023-03-05T19:29:33.493Z,100541.44
2023-03-05T19:32:02.581Z,100537.06
2023-03-05T19:34:32.798Z,100543.28
2023-03-05T19:37:02.568Z,100539.53
2023-03-05T19:39:31.855Z,100537.44
2023-03-05T19:42:01.530Z,100528.59
2023-03-05T19:44:32.564Z,100528.69
2023-03-05T19:47:02.637Z,100527.50
2023-03-05T19:49:34.407Z,100530.84
2023-03-05T19:52:03.799Z,100528.00
2023-03-05T19:54:33.190Z,100524.94
2023-03-05T19:57:02.450Z,100522.34
2023-03-05T19:59:31.752Z,100515.28
2023-03-05T20:02:02.113Z,100508.19
2023-03-05T20:04:31.850Z,100509.78
2023-03-05T20:07:01.365Z,100514.81
2023-03-05T20:09:31.224Z,100532.25
2023-03-05T20:12:05.178Z,100523.72
2023-03-05T20:14:36.147Z,100524.50
2023-03-05T20:17:06.302Z,100529.88
2023-03-05T20:19:34.870Z,100534.09
2023-03-05T20:22:04.354Z,100533.63
2023-03-05T20:24:34.212Z,100526.63
2023-03-05T20:27:03.446Z,100529.53
2023-03-05T20:29:32.606Z,100533.09
2023-03-05T20:32:02.905Z,100531.50
2023-03-05T20:34:33.038Z,100517.91
2023-03-05T20:37:02.789Z,100524.13
2023-03-05T20:39:32.112Z,100527.00
2023-03-05T20:42:02.557Z,100524.69
2023-03-05T20:44:33.349Z,100530.31
2023-03-05T20:47:13.190Z,100513.66
2023-03-05T20:49:42.724Z,100529.25
2023-03-05T20:52:11.969Z,100530.16
2023-03-05T20:54:40.677Z,100524.44
2023-03-05T20:57:11.028Z,100520.19
2023-03-05T20:59:40.380Z,100529.38
2023-03-05T21:02:11.999Z,100521.66
2023-03-05T21:04:40.611Z,100528.34
2023-03-05T21:07:10.734Z,100531.66
2023-03-05T21:09:39.785Z,100522.88
2023-03-05T21:12:10.544Z,100525.31
2023-03-05T21:14:42.209Z,100521.38
2023-03-05T21:17:13.033Z,100519.63
2023-03-05T21:19:42.733Z,100530.81
2023-03-05T21:22:12.204Z,100529.34
2023-03-05T21:24:56.150Z,100535.56
2023-03-05T21:27:24.540Z,100526.63
2023-03-05T21:29:52.988Z,100527.69
2023-03-05T21:32:22.430Z,100536.81
2023-03-05T21:34:53.082Z,100540.22
2023-03-05T21:37:22.507Z,100539.03
2023-03-05T21:39:51.137Z,100539.84
2023-03-05T21:42:20.306Z,100539.19
2023-03-05T21:44:48.867Z,100549.41
2023-03-05T21:47:19.520Z,100551.47
2023-03-05T21:49:48.506Z,100554.03
2023-03-05T21:52:19.940Z,100547.22
2023-03-05T21:54:49.084Z,100543.34
2023-03-05T21:57:18.683Z,100551.78
2023-03-05T21:59:47.964Z,100550.31
2023-03-05T22:02:20.127Z,100558.84
2023-03-05T22:04:49.302Z,100559.97
2023-03-05T22:07:20.640Z,100556.56
2023-03-05T22:09:56.084Z,100558.41
2023-03-05T22:12:39.786Z,100551.69
2023-03-05T22:15:09.910Z,100559.19
2023-03-05T22:17:40.104Z,100563.38
2023-03-05T22:20:09.682Z,100566.84
2023-03-05T22:22:40.208Z,100562.59
2023-03-05T22:25:09.711Z,100560.84
2023-03-05T22:27:38.714Z,100553.41
2023-03-05T22:30:08.210Z,100554.59
2023-03-05T22:32:37.358Z,100567.31
2023-03-05T22:35:08.292Z,100570.78
2023-03-05T22:37:36.800Z,100575.41
2023-03-05T22:40:06.549Z,100579.44
2023-03-05T22:42:38.272Z,100578.09
2023-03-05T22:45:07.862Z,100586.63
2023-03-05T22:47:36.800Z,100585.59
2023-03-05T22:50:08.833Z,100585.69
2023-03-05T22:52:38.721Z,100597.63
2023-03-05T22:55:08.667Z,100604.09
2023-03-05T22:57:39.726Z,100610.59
2023-03-05T23:00:15.510Z,100610.81
2023-03-05T23:02:45.801Z,100617.03
2023-03-05T23:05:14.612Z,100612.28
2023-03-05T23:07:44.282Z,100616.09
2023-03-05T23:10:15.669Z,100620.25
2023-03-05T23:12:50.665Z,100621.34
2023-03-05T23:15:24.271Z,100625.38
2023-03-05T23:17:53.190Z,100627.09
2023-03-05T23:20:28.265Z,100631.13
2023-03-05T23:22:59.507Z,100632.56
2023-03-05T23:25:32.353Z,100636.31
2023-03-05T23:28:02.793Z,100627.22
2023-03-05T23:30:35.993Z,100639.25
2023-03-05T23:33:06.721Z,100642.16
2023-03-05T23:35:44.212Z,100645.13
2023-03-05T23:38:16.885Z,100654.75
2023-03-05T23:40:48.799Z,100659.34
2023-03-05T23:43:20.178Z,100660.78
2023-03-05T23:45:50.524Z,100660.38
2023-03-05T23:48:20.071Z,100661.03
2023-03-05T23:50:56.040Z,100663.13
2023-03-05T23:53:31.891Z,100661.38
2023-03-05T23:56:02.235Z,100668.03
2023-03-05T23:58:31.963Z,100672.97
